createdAt,value
2023-01-15T00:01:03.499Z,3.21
2023-01-15T00:03:30.733Z,3.25
2023-01-15T00:06:02.230Z,3.17
2023-01-15T00:08:29.268Z,3.15
2023-01-15T00:10:56.412Z,3.18
2023-01-15T00:13:23.130Z,3.22
2023-01-15T00:15:49.910Z,3.23
2023-01-15T00:18:16.656Z,3.16
2023-01-15T00:20:43.370Z,3.19
2023-01-15T00:23:30.065Z,3.24
2023-01-15T00:26:15.675Z,3.20
2023-01-15T00:28:42.388Z,3.13
2023-01-15T00:31:09.208Z,3.10
2023-01-15T00:33:35.934Z,2.97
2023-01-15T00:36:02.721Z,2.88
2023-01-15T00:38:29.457Z,2.89
2023-01-15T00:40:56.196Z,2.91
2023-01-15T00:43:23.043Z,2.84
2023-01-15T00:45:51.281Z,2.83
2023-01-15T00:48:18.108Z,2.79
2023-01-15T00:50:44.899Z,2.78
2023-01-15T00:53:11.639Z,2.76
2023-01-15T00:55:38.372Z,2.75
2023-01-15T00:58:05.078Z,2.82
2023-01-15T01:00:31.884Z,2.84
2023-01-15T01:02:58.715Z,2.90
2023-01-15T01:05:25.403Z,2.92
2023-01-15T01:07:52.321Z,2.89
2023-01-15T01:10:19.103Z,2.82
2023-01-15T01:12:45.983Z,2.81
2023-01-15T01:15:12.699Z,2.84
2023-01-15T01:17:39.541Z,2.80
2023-01-15T01:20:07.173Z,2.86
2023-01-15T01:22:33.967Z,2.89
2023-01-15T01:25:00.682Z,2.86
2023-01-15T01:27:27.421Z,2.88
2023-01-15T01:29:54.166Z,2.91
2023-01-15T01:32:20.865Z,2.89
2023-01-15T01:34:47.611Z,2.86
2023-01-15T01:37:14.412Z,2.85
2023-01-15T01:39:41.196Z,2.84
2023-01-15T01:42:16.570Z,2.76
2023-01-15T01:44:43.766Z,2.74
2023-01-15T01:47:18.726Z,2.75
2023-01-15T01:49:47.648Z,2.73
2023-01-15T01:52:19.248Z,2.62
2023-01-15T01:54:47.485Z,2.56
2023-01-15T01:57:16.083Z,2.60
2023-01-15T01:59:43.218Z,2.69
2023-01-15T02:02:10.161Z,2.70
2023-01-15T02:04:37.596Z,2.67
2023-01-15T02:07:04.680Z,2.65
2023-01-15T02:09:31.672Z,2.72
2023-01-15T02:12:12.107Z,2.72
2023-01-15T02:15:03.089Z,2.74
2023-01-15T02:17:32.929Z,2.75
2023-01-15T02:20:02.527Z,2.76
2023-01-15T02:22:42.185Z,2.75
2023-01-15T02:25:19.814Z,2.70
2023-01-15T02:27:59.428Z,2.76
2023-01-15T02:30:28.679Z,2.70
2023-01-15T02:33:35.585Z,2.62
2023-01-15T02:36:06.445Z,2.54
2023-01-15T02:38:37.952Z,2.55
2023-01-15T02:41:06.093Z,2.53
2023-01-15T02:43:34.437Z,2.44
2023-01-15T02:46:01.886Z,2.37
2023-01-15T02:48:30.543Z,2.30
2023-01-15T02:51:28.021Z,2.27
2023-01-15T02:53:57.937Z,2.22
2023-01-15T02:56:27.552Z,2.25
2023-01-15T02:58:57.317Z,2.22
2023-01-15T03:01:29.311Z,2.20
2023-01-15T03:04:05.662Z,2.19
2023-01-15T03:06:46.614Z,2.19
2023-01-15T03:09:14.972Z,2.21
2023-01-15T03:11:49.073Z,2.18
2023-01-15T03:14:20.446Z,2.22
2023-01-15T03:16:57.606Z,2.22
2023-01-15T03:19:29.807Z,2.27
2023-01-15T03:22:02.024Z,2.29
2023-01-15T03:24:48.892Z,2.29
2023-01-15T03:27:15.697Z,2.26
2023-01-15T03:29:45.280Z,2.33
2023-01-15T03:32:12.071Z,2.34
2023-01-15T03:34:48.079Z,2.32
2023-01-15T03:37:15.027Z,2.28
2023-01-15T03:39:42.706Z,2.17
2023-01-15T03:42:09.364Z,2.08
2023-01-15T03:44:51.216Z,2.11
2023-01-15T03:47:27.673Z,2.15
2023-01-15T03:50:10.165Z,2.13
2023-01-15T03:52:55.552Z,2.16
2023-01-15T03:55:37.260Z,2.16
2023-01-15T03:58:27.605Z,2.08
2023-01-15T04:00:56.803Z,2.10
2023-01-15T04:03:24.684Z,2.17
2023-01-15T04:05:52.858Z,2.16
2023-01-15T04:08:19.961Z,2.12
2023-01-15T04:10:57.643Z,2.12
2023-01-15T04:13:24.615Z,2.01
2023-01-15T04:15:52.194Z,2.00
2023-01-15T04:18:19.409Z,1.97
2023-01-15T04:20:46.295Z,2.03
2023-01-15T04:23:13.238Z,2.02
2023-01-15T04:25:40.937Z,2.04
2023-01-15T04:28:08.561Z,2.06
2023-01-15T04:30:36.204Z,2.11
2023-01-15T04:33:03.213Z,2.08
2023-01-15T04:35:29.920Z,2.09
2023-01-15T04:38:00.323Z,2.10
2023-01-15T04:40:46.609Z,2.09
2023-01-15T04:43:32.897Z,2.02
2023-01-15T04:46:00.208Z,1.97
2023-01-15T04:48:27.153Z,1.97
2023-01-15T04:50:54.636Z,1.98
2023-01-15T04:53:21.363Z,1.97
2023-01-15T04:55:48.093Z,2.03
2023-01-15T04:58:14.776Z,2.05
2023-01-15T05:00:41.684Z,2.10
2023-01-15T05:03:08.430Z,2.14
2023-01-15T05:05:35.312Z,2.09
2023-01-15T05:08:02.097Z,2.01
2023-01-15T05:10:28.864Z,1.96
2023-01-15T05:12:55.561Z,1.92
2023-01-15T05:15:22.346Z,1.93
2023-01-15T05:17:49.040Z,1.94
2023-01-15T05:20:15.900Z,2.00
2023-01-15T05:22:42.627Z,2.01
2023-01-15T05:25:09.624Z,2.00
2023-01-15T05:27:36.328Z,1.98
2023-01-15T05:30:03.269Z,2.00
2023-01-15T05:32:30.821Z,2.03
2023-01-15T05:34:57.605Z,2.03
2023-01-15T05:37:25.121Z,2.05
2023-01-15T05:39:51.856Z,2.04
2023-01-15T05:42:18.614Z,2.03
2023-01-15T05:44:45.460Z,2.06
2023-01-15T05:47:12.194Z,2.00
2023-01-15T05:49:38.991Z,1.99
2023-01-15T05:52:06.041Z,2.02
2023-01-15T05:54:35.220Z,1.99
2023-01-15T05:57:02.796Z,2.03
2023-01-15T05:59:31.154Z,2.08
2023-01-15T06:01:58.016Z,2.01
2023-01-15T06:04:25.468Z,2.06
2023-01-15T06:06:53.726Z,2.06
2023-01-15T06:09:22.906Z,2.10
2023-01-15T06:11:50.483Z,2.08
2023-01-15T06:14:17.896Z,2.11
2023-01-15T06:16:44.633Z,2.09
2023-01-15T06:19:12.580Z,2.12
2023-01-15T06:21:39.410Z,2.16
2023-01-15T06:24:06.905Z,2.21
2023-01-15T06:26:33.643Z,2.17
2023-01-15T06:29:00.462Z,2.21
2023-01-15T06:31:27.385Z,2.25
2023-01-15T06:33:54.524Z,2.28
2023-01-15T06:36:23.552Z,2.29
2023-01-15T06:38:50.910Z,2.24
2023-01-15T06:41:41.633Z,2.26
2023-01-15T06:44:32.644Z,2.31
2023-01-15T06:47:21.241Z,2.33
2023-01-15T06:49:49.708Z,2.36
2023-01-15T06:52:16.539Z,2.29
2023-01-15T06:54:43.283Z,2.28
2023-01-15T06:57:10.042Z,2.35
2023-01-15T06:59:36.831Z,2.36
2023-01-15T07:02:03.608Z,2.41
2023-01-15T07:04:30.468Z,2.45
2023-01-15T07:06:57.213Z,2.49
2023-01-15T07:09:24.018Z,2.50
2023-01-15T07:11:50.750Z,2.43
2023-01-15T07:14:22.596Z,2.49
2023-01-15T07:16:49.455Z,2.46
2023-01-15T07:19:16.897Z,2.54
2023-01-15T07:21:43.755Z,2.63
2023-01-15T07:24:11.453Z,2.63
2023-01-15T07:26:38.521Z,2.72
2023-01-15T07:29:05.718Z,2.78
2023-01-15T07:31:32.861Z,2.88
2023-01-15T07:34:00.144Z,2.93
2023-01-15T07:36:26.972Z,2.92
2023-01-15T07:38:53.826Z,2.92
2023-01-15T07:41:39.675Z,2.93
2023-01-15T07:44:25.041Z,3.00
2023-01-15T07:47:10.511Z,3.04
2023-01-15T07:49:46.097Z,3.04
2023-01-15T07:52:16.963Z,2.97
2023-01-15T07:54:44.699Z,2.94
2023-01-15T07:57:14.052Z,3.03
2023-01-15T07:59:41.539Z,3.04
2023-01-15T08:02:08.362Z,3.13
2023-01-15T08:04:35.438Z,3.25
2023-01-15T08:07:03.158Z,3.34
2023-01-15T08:09:30.513Z,3.39
2023-01-15T08:12:19.312Z,3.40
2023-01-15T08:15:05.134Z,3.38
2023-01-15T08:17:36.126Z,3.39
2023-01-15T08:20:08.547Z,3.41
2023-01-15T08:22:35.390Z,3.39
2023-01-15T08:25:02.156Z,3.43
2023-01-15T08:27:29.615Z,3.49
2023-01-15T08:29:56.961Z,3.57
2023-01-15T08:32:24.604Z,3.65
2023-01-15T08:34:51.682Z,3.71
2023-01-15T08:37:18.744Z,3.75
2023-01-15T08:39:46.061Z,3.83
2023-01-15T08:42:13.033Z,3.85
2023-01-15T08:44:39.842Z,3.79
2023-01-15T08:47:06.602Z,3.78
2023-01-15T08:49:33.512Z,3.86
2023-01-15T08:52:01.047Z,3.96
2023-01-15T08:54:27.989Z,4.05
2023-01-15T08:56:54.799Z,4.10
2023-01-15T08:59:21.745Z,4.22
2023-01-15T09:02:12.009Z,4.27
2023-01-15T09:04:39.092Z,4.27
2023-01-15T09:07:05.934Z,4.41
2023-01-15T09:09:34.165Z,4.47
2023-01-15T09:12:00.959Z,4.38
2023-01-15T09:14:56.917Z,4.44
2023-01-15T09:17:14.459Z,4.60
2023-01-15T09:19:41.191Z,4.61
2023-01-15T09:22:09.040Z,4.72
2023-01-15T09:24:35.789Z,4.74
2023-01-15T09:27:02.539Z,4.72
2023-01-15T09:29:29.272Z,4.75
2023-01-15T09:31:56.041Z,4.75
2023-01-15T09:34:22.790Z,4.80
2023-01-15T09:36:50.902Z,4.86
2023-01-15T09:39:17.741Z,4.85
2023-01-15T09:42:06.921Z,5.09
2023-01-15T09:45:12.417Z,5.06
2023-01-15T09:47:48.618Z,5.20
2023-01-15T09:50:25.756Z,5.42
2023-01-15T09:53:05.917Z,5.49
2023-01-15T09:55:34.691Z,5.61
2023-01-15T09:58:04.848Z,5.69
2023-01-15T10:00:47.258Z,5.66
2023-01-15T10:03:13.945Z,5.98
2023-01-15T10:05:47.867Z,5.93
2023-01-15T10:08:17.756Z,5.81
2023-01-15T10:10:47.801Z,5.72
2023-01-15T10:13:35.756Z,5.71
2023-01-15T10:16:02.658Z,5.89
2023-01-15T10:18:29.554Z,6.08
2023-01-15T10:21:05.289Z,6.08
2023-01-15T10:23:40.082Z,6.14
2023-01-15T10:26:20.452Z,6.02
2023-01-15T10:29:00.789Z,6.16
2023-01-15T10:31:35.955Z,6.46
2023-01-15T10:34:08.932Z,6.78
2023-01-15T10:36:50.304Z,6.66
2023-01-15T10:39:25.285Z,6.63
2023-01-15T10:42:04.537Z,6.49
2023-01-15T10:44:49.639Z,6.25
2023-01-15T10:47:19.417Z,6.24
2023-01-15T10:49:46.670Z,6.34
2023-01-15T10:52:25.638Z,6.19
2023-01-15T10:54:59.702Z,6.44
2023-01-15T10:58:09.353Z,6.57
2023-01-15T11:00:37.825Z,6.52
2023-01-15T11:03:11.677Z,6.54
2023-01-15T11:05:38.914Z,6.65
2023-01-15T11:08:45.147Z,6.62
2023-01-15T11:10:55.555Z,6.81
2023-01-15T11:13:42.833Z,7.05
2023-01-15T11:16:44.401Z,7.08
2023-01-15T11:19:37.859Z,7.09
2023-01-15T11:22:10.675Z,7.39
2023-01-15T11:25:00.661Z,7.59
2023-01-15T11:27:32.798Z,7.71
2023-01-15T11:30:01.463Z,7.59
2023-01-15T11:32:32.846Z,7.66
2023-01-15T11:35:02.627Z,7.48
2023-01-15T11:37:30.306Z,7.58
2023-01-15T11:40:04.454Z,7.67
2023-01-15T11:42:49.693Z,7.70
2023-01-15T11:45:37.354Z,7.80
2023-01-15T11:48:37.417Z,8.02
2023-01-15T11:51:17.642Z,8.04
2023-01-15T11:53:47.450Z,7.88
2023-01-15T11:56:17.324Z,7.81
2023-01-15T11:58:49.307Z,7.86
2023-01-15T12:01:28.447Z,7.87
2023-01-15T12:03:55.952Z,7.93
2023-01-15T12:06:23.096Z,8.07
2023-01-15T12:09:14.455Z,8.72
2023-01-15T12:12:04.329Z,9.21
2023-01-15T12:15:06.787Z,9.97
2023-01-15T12:18:10.111Z,10.05
2023-01-15T12:20:53.975Z,9.66
2023-01-15T12:23:45.132Z,9.37
2023-01-15T12:26:25.130Z,9.33
2023-01-15T12:29:04.443Z,9.15
2023-01-15T12:31:39.083Z,8.91
2023-01-15T12:34:23.140Z,8.53
2023-01-15T12:37:06.963Z,8.52
2023-01-15T12:39:48.299Z,8.23
2023-01-15T12:42:39.312Z,8.17
2023-01-15T12:45:17.956Z,8.04
2023-01-15T12:47:56.690Z,8.03
2023-01-15T12:50:45.260Z,7.92
2023-01-15T12:53:31.228Z,7.84
2023-01-15T12:56:10.146Z,7.92
2023-01-15T12:59:01.823Z,8.06
2023-01-15T13:01:50.865Z,8.02
2023-01-15T13:04:39.606Z,8.03
2023-01-15T13:07:17.138Z,8.09
2023-01-15T13:09:48.274Z,8.08
2023-01-15T13:12:16.132Z,8.07
2023-01-15T13:14:46.417Z,8.04
2023-01-15T13:17:52.251Z,7.94
2023-01-15T13:20:24.660Z,7.86
2023-01-15T13:23:09.066Z,7.84
2023-01-15T13:25:57.199Z,7.88
2023-01-15T13:28:54.427Z,7.84
2023-01-15T13:31:21.190Z,7.80
2023-01-15T13:33:53.628Z,7.71
2023-01-15T13:36:46.777Z,7.66
2023-01-15T13:39:19.971Z,7.63
2023-01-15T13:42:08.229Z,7.65
2023-01-15T13:44:38.406Z,7.63
2023-01-15T13:47:11.587Z,7.60
2023-01-15T13:49:41.449Z,7.56
2023-01-15T13:52:23.269Z,7.52
2023-01-15T13:54:50.220Z,7.47
2023-01-15T13:57:24.046Z,7.40
2023-01-15T13:59:50.942Z,7.36
2023-01-15T14:02:30.320Z,7.37
2023-01-15T14:04:57.668Z,7.41
2023-01-15T14:07:36.079Z,7.42
2023-01-15T14:10:31.703Z,7.39
2023-01-15T14:13:06.960Z,7.38
2023-01-15T14:16:12.149Z,7.38
2023-01-15T14:19:47.052Z,7.36
2023-01-15T14:22:16.373Z,7.37
2023-01-15T14:24:49.750Z,7.33
2023-01-15T14:27:24.386Z,7.35
2023-01-15T14:29:57.639Z,7.28
2023-01-15T14:32:48.498Z,7.25
2023-01-15T14:35:20.247Z,7.29
2023-01-15T14:38:04.704Z,7.28
2023-01-15T14:40:34.506Z,7.27
2023-01-15T14:43:15.604Z,7.23
2023-01-15T14:45:44.846Z,7.28
2023-01-15T14:48:19.255Z,7.30
2023-01-15T14:50:48.789Z,7.27
2023-01-15T14:53:36.300Z,7.30
2023-01-15T14:56:16.738Z,7.30
2023-01-15T14:58:49.406Z,7.30
2023-01-15T15:01:25.881Z,7.32
2023-01-15T15:04:01.401Z,7.32
2023-01-15T15:06:28.308Z,7.33
2023-01-15T15:09:00.656Z,7.34
2023-01-15T15:12:01.734Z,7.31
2023-01-15T15:14:30.034Z,7.37
2023-01-15T15:17:00.458Z,7.38
2023-01-15T15:19:31.997Z,7.39
2023-01-15T15:22:03.827Z,7.41
2023-01-15T15:24:36.670Z,7.39
2023-01-15T15:27:23.232Z,7.38
2023-01-15T15:29:50.526Z,7.39
2023-01-15T15:32:22.410Z,7.39
2023-01-15T15:34:51.719Z,7.38
2023-01-15T15:37:20.953Z,7.42
2023-01-15T15:39:57.498Z,7.31
2023-01-15T15:43:01.285Z,7.34
2023-01-15T15:45:49.255Z,7.36
2023-01-15T15:48:43.048Z,7.36
2023-01-15T15:51:32.396Z,7.37
2023-01-15T15:54:03.557Z,7.37
2023-01-15T15:56:32.249Z,7.34
2023-01-15T15:58:59.535Z,7.36
2023-01-15T16:01:26.669Z,7.32
2023-01-15T16:03:53.463Z,7.29
2023-01-15T16:06:23.680Z,7.28
2023-01-15T16:09:04.752Z,7.24
2023-01-15T16:11:33.307Z,7.20
2023-01-15T16:14:01.210Z,7.17
2023-01-15T16:16:28.752Z,7.20
2023-01-15T16:18:57.163Z,7.24
2023-01-15T16:21:29.816Z,7.22
2023-01-15T16:23:57.306Z,7.22
2023-01-15T16:26:30.931Z,7.16
2023-01-15T16:29:00.793Z,7.14
2023-01-15T16:31:33.139Z,7.16
2023-01-15T16:34:00.177Z,7.15
2023-01-15T16:36:28.199Z,7.08
2023-01-15T16:38:55.400Z,7.14
2023-01-15T16:41:34.235Z,7.14
2023-01-15T16:44:02.868Z,7.17
2023-01-15T16:46:39.649Z,7.16
2023-01-15T16:49:21.940Z,7.17
2023-01-15T16:51:53.688Z,7.17
2023-01-15T16:54:32.503Z,7.14
2023-01-15T16:57:02.852Z,7.13
2023-01-15T16:59:32.344Z,7.10
2023-01-15T17:02:02.330Z,7.03
2023-01-15T17:04:31.000Z,7.02
2023-01-15T17:07:03.888Z,6.98
2023-01-15T17:09:33.441Z,6.98
2023-01-15T17:12:04.428Z,6.93
2023-01-15T17:14:31.337Z,6.93
2023-01-15T17:17:24.457Z,6.93
2023-01-15T17:19:52.217Z,6.93
2023-01-15T17:22:29.067Z,6.91
2023-01-15T17:24:58.700Z,6.69
2023-01-15T17:27:26.666Z,6.64
2023-01-15T17:29:53.857Z,6.56
2023-01-15T17:32:26.387Z,6.53
2023-01-15T17:34:53.395Z,6.50
2023-01-15T17:37:20.469Z,6.53
2023-01-15T17:39:47.397Z,6.57
2023-01-15T17:42:16.147Z,6.63
2023-01-15T17:44:43.626Z,6.59
2023-01-15T17:47:10.764Z,6.53
2023-01-15T17:49:37.904Z,6.57
2023-01-15T17:52:06.714Z,6.59
2023-01-15T17:54:52.246Z,6.61
2023-01-15T17:57:37.661Z,6.62
2023-01-15T18:00:23.540Z,6.66
2023-01-15T18:03:09.241Z,6.70
2023-01-15T18:05:36.750Z,6.68
2023-01-15T18:08:05.504Z,6.68
2023-01-15T18:10:33.488Z,6.69
2023-01-15T18:13:02.749Z,6.72
2023-01-15T18:15:29.955Z,6.63
2023-01-15T18:17:57.011Z,6.63
2023-01-15T18:20:24.021Z,6.63
2023-01-15T18:22:51.165Z,6.57
2023-01-15T18:25:18.245Z,6.60
2023-01-15T18:27:45.183Z,6.62
2023-01-15T18:30:14.401Z,6.62
2023-01-15T18:32:42.380Z,6.62
2023-01-15T18:35:10.045Z,6.56
2023-01-15T18:37:37.096Z,6.57
2023-01-15T18:40:05.016Z,6.57
2023-01-15T18:42:50.289Z,6.58
2023-01-15T18:45:35.956Z,6.61
2023-01-15T18:48:03.075Z,6.56
2023-01-15T18:50:30.104Z,6.49
2023-01-15T18:52:57.932Z,6.46
2023-01-15T18:55:28.292Z,6.44
2023-01-15T18:57:55.928Z,6.41
2023-01-15T19:00:24.483Z,6.42
2023-01-15T19:02:51.885Z,6.43
2023-01-15T19:05:19.390Z,6.45
2023-01-15T19:07:47.523Z,6.38
2023-01-15T19:10:15.847Z,6.42
2023-01-15T19:12:44.685Z,6.43
2023-01-15T19:15:35.513Z,6.44
2023-01-15T19:18:22.042Z,6.41
2023-01-15T19:20:49.319Z,6.41
2023-01-15T19:23:16.092Z,6.30
2023-01-15T19:25:45.671Z,6.37
2023-01-15T19:28:16.312Z,6.41
2023-01-15T19:31:04.846Z,6.43
2023-01-15T19:33:32.605Z,6.40
2023-01-15T19:35:59.600Z,6.43
2023-01-15T19:38:26.741Z,6.47
2023-01-15T19:40:53.788Z,6.49
2023-01-15T19:43:39.349Z,6.50
2023-01-15T19:46:26.740Z,6.52
2023-01-15T19:49:12.317Z,6.49
2023-01-15T19:51:57.743Z,6.44
2023-01-15T19:54:45.146Z,6.42
2023-01-15T19:57:12.480Z,6.41
2023-01-15T19:59:39.513Z,6.43
2023-01-15T20:02:06.500Z,6.43
2023-01-15T20:04:36.463Z,6.42
2023-01-15T20:07:03.395Z,6.43
2023-01-15T20:09:30.421Z,6.44
2023-01-15T20:12:16.113Z,6.43
2023-01-15T20:14:43.133Z,6.42
2023-01-15T20:17:11.381Z,6.39
2023-01-15T20:19:38.121Z,6.29
2023-01-15T20:22:05.197Z,6.22
2023-01-15T20:24:32.212Z,6.23
2023-01-15T20:26:58.886Z,6.19
2023-01-15T20:29:25.947Z,6.14
2023-01-15T20:31:53.062Z,6.11
2023-01-15T20:34:19.854Z,6.10
2023-01-15T20:36:46.973Z,6.10
2023-01-15T20:39:16.151Z,6.11
2023-01-15T20:42:02.348Z,6.09
2023-01-15T20:44:48.274Z,6.10
2023-01-15T20:47:33.573Z,6.08
2023-01-15T20:50:00.579Z,6.05
2023-01-15T20:52:27.602Z,6.05
2023-01-15T20:54:54.558Z,6.01
2023-01-15T20:57:21.548Z,6.00
2023-01-15T20:59:48.691Z,5.94
2023-01-15T21:02:15.517Z,5.93
2023-01-15T21:04:42.486Z,5.96
2023-01-15T21:07:09.375Z,5.94
2023-01-15T21:09:36.430Z,5.94
2023-01-15T21:12:03.346Z,5.94
2023-01-15T21:14:30.156Z,5.95
2023-01-15T21:16:56.892Z,5.94
2023-01-15T21:19:23.677Z,5.93
2023-01-15T21:21:50.555Z,5.91
2023-01-15T21:24:17.276Z,5.90
2023-01-15T21:26:45.689Z,5.91
2023-01-15T21:29:13.649Z,5.89
2023-01-15T21:31:40.821Z,5.85
2023-01-15T21:34:07.704Z,5.86
2023-01-15T21:36:34.675Z,5.87
2023-01-15T21:39:01.651Z,5.86
2023-01-15T21:41:46.948Z,5.84
2023-01-15T21:44:31.480Z,5.80
2023-01-15T21:47:00.026Z,5.80
2023-01-15T21:49:27.259Z,5.77
2023-01-15T21:51:54.095Z,5.76
2023-01-15T21:54:20.865Z,5.74
2023-01-15T21:56:47.654Z,5.74
2023-01-15T21:59:14.856Z,5.69
2023-01-15T22:01:41.932Z,5.69
2023-01-15T22:04:08.716Z,5.67
2023-01-15T22:06:37.833Z,5.65
2023-01-15T22:09:04.875Z,5.62
2023-01-15T22:11:46.725Z,5.58
2023-01-15T22:14:27.668Z,5.42
2023-01-15T22:16:55.943Z,5.36
2023-01-15T22:19:25.450Z,5.33
2023-01-15T22:21:54.311Z,5.25
2023-01-15T22:24:21.953Z,5.19
2023-01-15T22:26:54.098Z,5.15
2023-01-15T22:29:26.093Z,5.11
2023-01-15T22:31:53.579Z,5.09
2023-01-15T22:34:21.442Z,5.07
2023-01-15T22:36:49.488Z,5.07
2023-01-15T22:39:16.604Z,5.04
2023-01-15T22:42:07.097Z,5.02
2023-01-15T22:44:34.086Z,5.03
2023-01-15T22:47:02.352Z,5.06
2023-01-15T22:49:29.555Z,5.08
2023-01-15T22:51:56.256Z,5.10
2023-01-15T22:54:23.118Z,5.09
2023-01-15T22:56:49.807Z,5.07
2023-01-15T22:59:17.023Z,5.06
2023-01-15T23:01:43.958Z,5.08
2023-01-15T23:04:19.893Z,5.12
2023-01-15T23:06:46.769Z,5.14
2023-01-15T23:09:13.696Z,5.15
2023-01-15T23:11:40.875Z,5.16
2023-01-15T23:14:09.677Z,5.17
2023-01-15T23:16:36.457Z,5.15
2023-01-15T23:19:03.849Z,5.18
2023-01-15T23:21:30.629Z,5.19
2023-01-15T23:23:59.414Z,5.18
2023-01-15T23:26:28.426Z,5.20
2023-01-15T23:28:55.227Z,5.21
2023-01-15T23:31:22.386Z,5.21
2023-01-15T23:33:49.250Z,5.20
2023-01-15T23:36:16.509Z,5.23
2023-01-15T23:38:46.505Z,5.23
2023-01-15T23:41:19.549Z,5.20
2023-01-15T23:44:04.888Z,5.19
2023-01-15T23:46:37.840Z,5.17
2023-01-15T23:49:08.626Z,5.12
2023-01-15T23:51:36.385Z,5.09
2023-01-15T23:54:04.050Z,5.07
2023-01-15T23:56:32.384Z,5.06
2023-01-15T23:58:59.432Z,5.05
